createdAt,value
2017-12-02T00:02:12.552Z,47.47
2017-12-02T00:04:40.852Z,47.08
2017-12-02T00:07:08.388Z,50.12
2017-12-02T00:09:36.876Z,55.00
2017-12-02T00:12:04.408Z,56.53
2017-12-02T00:14:32.000Z,54.72
2017-12-02T00:16:59.532Z,59.67
2017-12-02T00:19:27.843Z,57.17
2017-12-02T00:21:55.423Z,53.33
2017-12-02T00:24:22.996Z,53.90
2017-12-02T00:26:50.526Z,55.35
2017-12-02T00:29:18.060Z,57.55
2017-12-02T00:31:46.836Z,53.10
2017-12-02T00:34:15.144Z,52.95
2017-12-02T00:36:42.672Z,48.45
2017-12-02T00:39:10.235Z,51.22
2017-12-02T00:41:38.545Z,46.55
2017-12-02T00:44:06.125Z,48.70
2017-12-02T00:46:33.705Z,44.75
2017-12-02T00:49:01.242Z,43.50
2017-12-02T00:51:40.006Z,50.45
2017-12-02T00:54:07.800Z,61.55
2017-12-02T00:56:35.381Z,49.72
2017-12-02T00:59:03.099Z,49.28
2017-12-02T01:01:30.628Z,53.05
2017-12-02T01:03:58.247Z,46.78
2017-12-02T01:06:25.793Z,47.62
2017-12-02T01:08:54.105Z,56.63
2017-12-02T01:11:21.712Z,59.35
2017-12-02T01:13:49.244Z,50.33
2017-12-02T01:16:16.777Z,50.22
2017-12-02T01:18:45.086Z,51.25
2017-12-02T01:21:13.635Z,53.47
2017-12-02T01:23:41.168Z,55.25
2017-12-02T01:26:09.477Z,55.90
2017-12-02T01:28:37.052Z,53.97
2017-12-02T01:31:04.588Z,57.97
2017-12-02T01:33:32.164Z,65.00
2017-12-02T01:36:00.680Z,59.05
2017-12-02T01:38:28.234Z,67.22
2017-12-02T01:40:55.827Z,61.80
2017-12-02T01:43:24.124Z,64.28
2017-12-02T01:45:51.665Z,62.33
2017-12-02T01:48:20.008Z,65.60
2017-12-02T01:50:47.592Z,64.22
2017-12-02T01:53:16.194Z,68.45
2017-12-02T01:55:43.781Z,61.03
2017-12-02T01:58:11.314Z,69.95
2017-12-02T02:00:46.420Z,63.63
2017-12-02T02:03:13.964Z,66.15
2017-12-02T02:05:41.543Z,75.35
2017-12-02T02:08:09.081Z,70.85
2017-12-02T02:10:37.253Z,74.22
2017-12-02T02:13:04.789Z,87.35
2017-12-02T02:15:36.393Z,82.90
2017-12-02T02:18:03.963Z,63.58
2017-12-02T02:20:32.269Z,60.63
2017-12-02T02:23:00.040Z,62.25
2017-12-02T02:25:27.577Z,65.95
2017-12-02T02:27:55.876Z,62.13
2017-12-02T02:30:36.757Z,57.08
2017-12-02T02:33:04.289Z,60.92
2017-12-02T02:35:32.584Z,57.00
2017-12-02T02:38:00.188Z,55.35
2017-12-02T02:40:27.723Z,59.17
2017-12-02T02:42:55.265Z,59.75
2017-12-02T02:45:22.832Z,59.90
2017-12-02T02:47:50.580Z,56.58
2017-12-02T02:50:18.119Z,53.85
2017-12-02T02:52:47.684Z,54.72
2017-12-02T02:55:15.279Z,55.30
2017-12-02T02:57:43.593Z,56.22
2017-12-02T03:00:11.134Z,54.33
2017-12-02T03:02:39.479Z,53.83
2017-12-02T03:05:07.030Z,52.00
2017-12-02T03:07:34.747Z,48.35
2017-12-02T03:10:02.276Z,51.08
2017-12-02T03:12:30.719Z,53.97
2017-12-02T03:14:58.300Z,53.63
2017-12-02T03:17:26.028Z,51.30
2017-12-02T03:19:53.575Z,52.75
2017-12-02T03:22:21.148Z,55.40
2017-12-02T03:24:48.685Z,56.28
2017-12-02T03:27:16.221Z,59.65
2017-12-02T03:29:44.829Z,55.53
2017-12-02T03:32:28.458Z,51.20
2017-12-02T03:34:56.816Z,50.80
2017-12-02T03:37:24.344Z,56.95
2017-12-02T03:39:51.876Z,52.15
2017-12-02T03:42:25.487Z,51.53
2017-12-02T03:44:53.040Z,52.78
2017-12-02T03:47:20.580Z,51.30
2017-12-02T03:50:04.259Z,57.90
2017-12-02T03:52:33.143Z,55.78
2017-12-02T03:55:00.735Z,49.53
2017-12-02T03:57:28.227Z,51.25
2017-12-02T03:59:55.791Z,50.63
2017-12-02T04:02:23.361Z,52.33
2017-12-02T04:04:50.887Z,54.78
2017-12-02T04:07:21.577Z,51.20
2017-12-02T04:09:49.873Z,54.75
2017-12-02T04:12:17.408Z,58.08
2017-12-02T04:14:44.982Z,54.35
2017-12-02T04:17:19.420Z,56.10
2017-12-02T04:19:47.143Z,52.13
2017-12-02T04:22:14.672Z,52.85
2017-12-02T04:24:43.209Z,51.17
2017-12-02T04:27:10.752Z,60.88
2017-12-02T04:29:38.284Z,55.60
2017-12-02T04:32:05.876Z,60.88
2017-12-02T04:34:33.412Z,57.10
2017-12-02T04:37:00.943Z,58.33
2017-12-02T04:39:29.286Z,53.72
2017-12-02T04:41:56.817Z,60.75
2017-12-02T04:44:24.810Z,54.22
2017-12-02T04:46:52.353Z,54.97
2017-12-02T04:49:20.648Z,51.95
2017-12-02T04:51:53.531Z,53.28
2017-12-02T04:54:21.070Z,56.85
2017-12-02T04:56:48.618Z,60.17
2017-12-02T04:59:16.199Z,57.90
2017-12-02T05:01:43.737Z,58.42
2017-12-02T05:04:11.472Z,61.55
2017-12-02T05:06:39.802Z,59.60
2017-12-02T05:09:12.283Z,58.72
2017-12-02T05:11:39.819Z,63.80
2017-12-02T05:14:11.311Z,61.10
2017-12-02T05:16:39.160Z,62.08
2017-12-02T05:19:11.705Z,61.17
2017-12-02T05:21:39.387Z,54.20
2017-12-02T05:24:06.915Z,60.63
2017-12-02T05:26:35.276Z,59.13
2017-12-02T05:29:02.807Z,55.55
2017-12-02T05:31:30.340Z,55.10
2017-12-02T05:33:58.060Z,54.38
2017-12-02T05:36:31.235Z,60.70
2017-12-02T05:38:58.862Z,52.47
2017-12-02T05:41:26.386Z,60.80
2017-12-02T05:43:54.748Z,59.55
2017-12-02T05:46:22.283Z,59.00
2017-12-02T05:48:51.792Z,56.58
2017-12-02T05:51:19.508Z,62.85
2017-12-02T05:53:47.082Z,59.08
2017-12-02T05:56:14.608Z,62.92
2017-12-02T05:58:44.160Z,56.17
2017-12-02T06:01:11.744Z,59.13
2017-12-02T06:03:39.276Z,56.97
2017-12-02T06:06:06.821Z,64.05
2017-12-02T06:08:34.595Z,61.58
2017-12-02T06:11:02.137Z,115.75
2017-12-02T06:13:31.736Z,62.58
2017-12-02T06:15:59.599Z,66.47
2017-12-02T06:18:28.361Z,61.83
2017-12-02T06:20:55.896Z,63.50
2017-12-02T06:23:23.448Z,62.90
2017-12-02T06:26:00.298Z,56.47
2017-12-02T06:28:27.829Z,54.92
2017-12-02T06:30:56.204Z,60.92
2017-12-02T06:33:23.780Z,61.72
2017-12-02T06:35:57.188Z,61.25
2017-12-02T06:38:24.740Z,85.57
2017-12-02T06:40:53.364Z,77.15
2017-12-02T06:43:20.940Z,59.92
2017-12-02T06:45:48.471Z,57.78
2017-12-02T06:48:16.041Z,56.45
2017-12-02T06:50:43.578Z,50.12
2017-12-02T06:53:11.168Z,61.53
2017-12-02T06:55:38.704Z,53.65
2017-12-02T06:58:12.475Z,53.60
2017-12-02T07:00:40.787Z,53.55
2017-12-02T07:17:22.977Z,56.22
2017-12-02T07:19:50.429Z,58.97
2017-12-02T07:22:17.876Z,58.45
2017-12-02T07:24:46.149Z,57.47
2017-12-02T07:27:14.366Z,63.22
2017-12-02T07:29:42.905Z,70.35
2017-12-02T07:32:11.107Z,70.25
2017-12-02T07:34:38.553Z,69.40
2017-12-02T07:37:06.246Z,69.85
2017-12-02T07:39:33.688Z,69.05
2017-12-02T07:42:01.125Z,74.70
2017-12-02T07:44:28.905Z,71.65
2017-12-02T07:46:56.553Z,87.75
2017-12-02T07:49:23.989Z,64.43
2017-12-02T07:51:52.399Z,74.72
2017-12-02T07:54:19.840Z,73.22
2017-12-02T07:56:47.304Z,69.07
2017-12-02T07:59:14.799Z,74.65
2017-12-02T08:01:42.253Z,68.25
2017-12-02T08:04:09.733Z,74.90
2017-12-02T08:06:37.187Z,68.18
2017-12-02T08:09:04.616Z,63.80
2017-12-02T08:11:52.483Z,74.45
2017-12-02T08:14:19.917Z,74.87
2017-12-02T08:16:47.366Z,69.37
2017-12-02T08:19:14.877Z,68.05
2017-12-02T08:21:44.105Z,65.82
2017-12-02T08:24:11.542Z,68.95
2017-12-02T08:26:39.872Z,66.95
2017-12-02T08:29:08.509Z,59.22
2017-12-02T08:31:36.717Z,76.60
2017-12-02T08:34:04.157Z,68.35
2017-12-02T08:36:31.646Z,76.20
2017-12-02T08:38:59.109Z,69.25
2017-12-02T08:41:26.609Z,66.82
2017-12-02T08:43:54.890Z,69.32
2017-12-02T08:46:23.120Z,80.03
2017-12-02T08:48:50.562Z,69.95
2017-12-02T08:51:18.446Z,72.68
2017-12-02T08:53:57.967Z,69.53
2017-12-02T08:56:25.424Z,67.97
2017-12-02T08:58:52.893Z,68.70
2017-12-02T09:01:20.364Z,68.97
2017-12-02T09:03:47.865Z,64.15
2017-12-02T09:06:16.068Z,68.18
2017-12-02T09:09:00.721Z,67.45
2017-12-02T09:11:28.976Z,62.75
2017-12-02T09:13:57.449Z,94.85
2017-12-02T09:16:25.648Z,62.03
2017-12-02T09:18:53.162Z,67.22
2017-12-02T09:21:35.559Z,68.30
2017-12-02T09:24:02.993Z,56.97
2017-12-02T09:26:30.438Z,56.85
2017-12-02T09:28:58.682Z,58.80
2017-12-02T09:31:26.138Z,63.95
2017-12-02T09:33:54.496Z,65.28
2017-12-02T09:36:21.933Z,58.33
2017-12-02T09:39:07.919Z,56.72
2017-12-02T09:41:35.369Z,64.07
2017-12-02T09:44:03.557Z,57.53
2017-12-02T09:46:31.978Z,54.28
2017-12-02T09:49:00.185Z,50.22
2017-12-02T09:51:27.726Z,54.65
2017-12-02T09:53:55.125Z,51.03
2017-12-02T09:56:22.566Z,49.58
2017-12-02T09:58:50.032Z,55.58
2017-12-02T10:01:17.817Z,52.62
2017-12-02T10:03:45.258Z,66.90
2017-12-02T10:06:12.701Z,56.03
2017-12-02T10:08:40.174Z,52.65
2017-12-02T10:14:06.494Z,56.58
2017-12-02T10:16:33.928Z,53.40
2017-12-02T10:19:02.133Z,51.17
2017-12-02T10:21:35.557Z,49.10
2017-12-02T10:24:02.998Z,60.85
2017-12-02T10:26:30.595Z,56.00
2017-12-02T10:28:58.034Z,56.80
2017-12-02T10:31:25.523Z,56.13
2017-12-02T10:33:52.945Z,56.33
2017-12-02T10:36:20.564Z,58.08
2017-12-02T10:38:48.768Z,53.28
2017-12-02T10:41:16.218Z,56.17
2017-12-02T10:43:43.818Z,64.20
2017-12-02T10:46:11.252Z,51.75
2017-12-02T10:48:38.734Z,52.42
2017-12-02T10:51:06.174Z,52.08
2017-12-02T10:53:33.617Z,49.28
2017-12-02T10:56:01.202Z,57.22
2017-12-02T10:58:31.637Z,52.17
2017-12-02T11:00:59.081Z,49.53
2017-12-02T11:03:26.638Z,53.22
2017-12-02T11:05:54.120Z,51.53
2017-12-02T11:08:21.545Z,55.95
2017-12-02T11:10:49.018Z,53.47
2017-12-02T11:13:17.451Z,50.05
2017-12-02T11:15:44.893Z,51.78
2017-12-02T11:18:13.142Z,53.17
2017-12-02T11:20:40.586Z,54.70
2017-12-02T11:23:08.025Z,61.85
2017-12-02T11:25:36.592Z,52.92
2017-12-02T11:28:04.029Z,51.70
2017-12-02T11:30:32.261Z,52.00
2017-12-02T11:33:01.745Z,47.50
2017-12-02T11:35:29.199Z,52.58
2017-12-02T11:37:56.642Z,55.45
2017-12-02T11:40:24.126Z,53.28
2017-12-02T11:42:51.573Z,54.85
2017-12-02T11:45:19.208Z,56.92
2017-12-02T11:47:54.277Z,53.30
2017-12-02T11:50:21.749Z,57.62
2017-12-02T11:52:49.189Z,52.65
2017-12-02T11:55:16.788Z,47.47
2017-12-02T11:57:44.237Z,47.88
2017-12-02T12:00:11.684Z,50.25
2017-12-02T12:02:39.198Z,50.88
2017-12-02T12:05:06.641Z,47.60
2017-12-02T12:07:34.869Z,52.38
2017-12-02T12:10:02.314Z,52.88
2017-12-02T12:12:30.502Z,69.75
2017-12-02T12:15:21.950Z,52.22
2017-12-02T12:17:49.589Z,46.97
2017-12-02T12:20:17.034Z,47.70
2017-12-02T12:22:44.498Z,51.37
2017-12-02T12:25:11.966Z,49.97
2017-12-02T12:27:40.357Z,54.05
2017-12-02T12:30:07.825Z,52.55
2017-12-02T12:32:35.261Z,55.63
2017-12-02T12:35:02.851Z,53.30
2017-12-02T12:37:31.066Z,54.40
2017-12-02T12:39:58.549Z,55.17
2017-12-02T12:42:25.997Z,53.85
2017-12-02T12:44:53.525Z,57.38
2017-12-02T12:47:22.033Z,55.97
2017-12-02T12:49:49.448Z,52.28
2017-12-02T12:52:17.665Z,58.10
2017-12-02T12:54:45.317Z,49.95
2017-12-02T12:57:12.761Z,53.35
2017-12-02T12:59:40.201Z,52.35
2017-12-02T13:02:08.439Z,52.40
2017-12-02T13:04:35.909Z,50.35
2017-12-02T13:07:03.420Z,51.95
2017-12-02T13:09:30.860Z,45.75
2017-12-02T13:11:58.303Z,45.08
2017-12-02T13:14:26.613Z,46.33
2017-12-02T13:16:55.965Z,53.33
2017-12-02T13:19:24.639Z,43.95
2017-12-02T13:21:52.080Z,47.58
2017-12-02T13:24:19.518Z,47.72
2017-12-02T13:26:53.469Z,47.17
2017-12-02T13:29:20.911Z,45.95
2017-12-02T13:31:48.352Z,39.13
2017-12-02T13:34:15.950Z,45.17
2017-12-02T13:36:43.417Z,43.13
2017-12-02T13:39:11.656Z,41.85
2017-12-02T13:41:39.109Z,38.03
2017-12-02T13:44:19.473Z,39.72
2017-12-02T13:46:46.913Z,40.90
2017-12-02T13:49:14.353Z,41.55
2017-12-02T13:51:42.097Z,35.50
2017-12-02T13:54:11.272Z,33.95
2017-12-02T13:56:38.732Z,36.63
2017-12-02T13:59:06.189Z,34.20
2017-12-02T14:01:34.565Z,29.63
2017-12-02T14:04:02.042Z,32.90
2017-12-02T14:06:30.257Z,34.28
2017-12-02T14:08:58.675Z,37.00
2017-12-02T14:11:26.549Z,31.98
2017-12-02T14:13:56.473Z,31.87
2017-12-02T14:16:24.075Z,37.40
2017-12-02T14:18:52.502Z,27.58
2017-12-02T14:21:19.966Z,33.17
2017-12-02T14:23:47.400Z,35.47
2017-12-02T14:26:15.168Z,33.47
2017-12-02T14:28:42.616Z,37.40
2017-12-02T14:31:10.060Z,41.72
2017-12-02T14:33:38.385Z,34.92
2017-12-02T14:36:06.610Z,33.67
2017-12-02T14:38:34.086Z,34.78
2017-12-02T14:41:01.541Z,36.08
2017-12-02T14:43:28.986Z,33.00
2017-12-02T14:46:02.618Z,35.55
2017-12-02T14:48:30.113Z,34.20
2017-12-02T14:50:57.553Z,33.33
2017-12-02T14:53:24.982Z,31.40
2017-12-02T14:55:52.559Z,31.12
2017-12-02T14:58:26.085Z,30.55
2017-12-02T15:00:54.297Z,35.60
2017-12-02T15:03:21.774Z,35.72
2017-12-02T15:05:51.222Z,32.15
2017-12-02T15:08:19.484Z,35.97
2017-12-02T15:10:47.047Z,32.33
2017-12-02T15:13:15.279Z,32.95
2017-12-02T15:15:42.897Z,47.97
2017-12-02T15:18:11.109Z,54.28
2017-12-02T15:20:38.594Z,50.80
2017-12-02T15:23:06.031Z,32.85
2017-12-02T15:25:33.470Z,33.10
2017-12-02T15:28:00.952Z,36.17
2017-12-02T15:30:28.397Z,37.42
2017-12-02T15:32:55.885Z,63.25
2017-12-02T15:35:23.539Z,126.65
2017-12-02T15:37:50.970Z,40.72
2017-12-02T15:40:18.567Z,37.15
2017-12-02T15:42:46.001Z,33.50
2017-12-02T15:45:13.441Z,35.83
2017-12-02T15:47:42.141Z,36.20
2017-12-02T15:50:09.581Z,39.40
2017-12-02T15:52:37.061Z,34.20
2017-12-02T15:55:04.645Z,44.85
2017-12-02T15:57:32.089Z,37.77
2017-12-02T15:59:59.553Z,35.65
2017-12-02T16:05:20.439Z,48.60
2017-12-02T16:07:47.898Z,39.80
2017-12-02T16:10:15.818Z,35.60
2017-12-02T16:12:43.261Z,58.13
2017-12-02T16:15:10.706Z,37.88
2017-12-02T16:17:38.297Z,58.53
2017-12-02T16:20:06.504Z,51.80
2017-12-02T16:22:40.003Z,42.40
2017-12-02T16:25:07.465Z,39.92
2017-12-02T16:27:34.902Z,38.55
2017-12-02T16:30:03.256Z,41.80
2017-12-02T16:35:26.385Z,141.02
2017-12-02T16:37:53.834Z,45.12
2017-12-02T16:40:22.045Z,34.65
2017-12-02T16:42:49.508Z,36.90
2017-12-02T16:45:17.077Z,34.92
2017-12-02T16:47:44.520Z,31.23
2017-12-02T16:50:11.949Z,33.90
2017-12-02T16:52:39.429Z,35.90
2017-12-02T16:55:06.913Z,32.00
2017-12-02T16:57:34.357Z,33.58
2017-12-02T17:00:12.769Z,39.05
2017-12-02T17:02:40.205Z,36.30
2017-12-02T17:05:11.529Z,33.53
2017-12-02T17:07:38.990Z,34.33
2017-12-02T17:10:06.429Z,32.95
2017-12-02T17:12:37.638Z,32.88
2017-12-02T17:15:05.099Z,30.98
2017-12-02T17:17:32.541Z,35.42
2017-12-02T17:23:01.845Z,32.20
2017-12-02T17:25:29.440Z,36.92
2017-12-02T17:27:56.876Z,32.05
2017-12-02T17:30:24.328Z,30.55
2017-12-02T17:32:51.781Z,32.65
2017-12-02T17:35:23.153Z,31.98
2017-12-02T17:37:50.596Z,47.55
2017-12-02T17:40:18.041Z,39.28
2017-12-02T17:42:45.632Z,41.95
2017-12-02T17:45:13.081Z,98.35
2017-12-02T17:47:40.516Z,37.28
2017-12-02T17:50:11.009Z,33.90
2017-12-02T17:52:39.221Z,69.03
2017-12-02T17:55:06.812Z,41.33
2017-12-02T17:57:34.342Z,52.22
2017-12-02T18:00:01.786Z,41.55
2017-12-02T18:02:29.225Z,34.42
2017-12-02T18:04:56.745Z,37.33
2017-12-02T18:07:25.116Z,34.60
2017-12-02T18:09:52.561Z,33.90
2017-12-02T18:12:20.057Z,35.45
2017-12-02T18:14:49.918Z,36.75
2017-12-02T18:17:17.357Z,36.22
2017-12-02T18:19:44.871Z,33.90
2017-12-02T18:22:12.313Z,36.22
2017-12-02T18:24:39.789Z,30.80
2017-12-02T18:27:07.240Z,32.63
2017-12-02T18:29:34.712Z,32.20
2017-12-02T18:32:02.154Z,33.53
2017-12-02T18:34:29.764Z,38.08
2017-12-02T18:39:47.970Z,35.38
2017-12-02T18:42:15.428Z,34.00
2017-12-02T18:44:42.870Z,34.08
2017-12-02T18:47:10.341Z,37.90
2017-12-02T18:49:38.731Z,37.47
2017-12-02T18:52:06.336Z,36.63
2017-12-02T18:54:33.773Z,33.28
2017-12-02T18:57:06.056Z,37.70
2017-12-02T18:59:33.494Z,33.38
2017-12-02T19:02:01.723Z,36.08
2017-12-02T19:04:29.165Z,36.65
2017-12-02T19:09:56.029Z,34.42
2017-12-02T19:12:23.508Z,36.42
2017-12-02T19:14:50.958Z,37.63
2017-12-02T19:17:18.428Z,40.45
2017-12-02T19:19:46.842Z,34.50
2017-12-02T19:22:15.393Z,40.70
2017-12-02T19:24:42.840Z,41.05
2017-12-02T19:27:10.286Z,43.63
2017-12-02T19:29:37.821Z,54.90
2017-12-02T19:32:05.212Z,54.08
2017-12-02T19:34:38.761Z,51.22
2017-12-02T19:37:06.968Z,51.90
2017-12-02T19:39:34.598Z,53.80
2017-12-02T19:42:02.803Z,53.05
2017-12-02T19:44:30.261Z,56.47
2017-12-02T19:46:57.729Z,55.88
2017-12-02T19:49:25.174Z,64.82
2017-12-02T19:51:53.417Z,50.83
2017-12-02T19:54:20.857Z,39.97
2017-12-02T19:56:48.384Z,40.45
2017-12-02T19:59:16.793Z,40.80
2017-12-02T20:01:44.258Z,40.63
2017-12-02T20:04:12.473Z,39.63
2017-12-02T20:06:40.073Z,44.20
2017-12-02T20:09:07.529Z,44.30
2017-12-02T20:11:34.994Z,45.40
2017-12-02T20:14:02.561Z,38.97
2017-12-02T20:16:30.008Z,41.20
2017-12-02T20:18:57.486Z,41.63
2017-12-02T20:21:25.709Z,37.05
2017-12-02T20:23:53.207Z,37.55
2017-12-02T20:26:20.651Z,39.30
2017-12-02T20:28:48.103Z,39.03
2017-12-02T20:31:15.678Z,42.97
2017-12-02T20:33:43.182Z,40.63
2017-12-02T20:36:10.625Z,40.35
2017-12-02T20:38:38.834Z,41.83
2017-12-02T20:41:06.318Z,38.45
2017-12-02T20:43:33.757Z,38.67
2017-12-02T20:46:01.202Z,38.30
2017-12-02T20:48:28.754Z,38.03
2017-12-02T20:50:56.345Z,39.85
2017-12-02T20:53:23.794Z,43.15
2017-12-02T20:55:51.244Z,43.28
2017-12-02T20:58:21.730Z,37.00
2017-12-02T21:00:49.928Z,37.00
2017-12-02T21:03:17.398Z,36.67
2017-12-02T21:05:44.831Z,40.55
2017-12-02T21:08:12.482Z,62.40
2017-12-02T21:10:41.658Z,50.67
2017-12-02T21:13:10.385Z,34.50
2017-12-02T21:15:37.824Z,74.50
2017-12-02T21:18:06.054Z,42.05
2017-12-02T21:20:33.512Z,45.25
2017-12-02T21:23:01.108Z,50.60
2017-12-02T21:25:29.473Z,51.22
2017-12-02T21:27:56.913Z,35.35
2017-12-02T21:30:24.778Z,37.95
2017-12-02T21:32:52.223Z,33.97
2017-12-02T21:35:20.424Z,39.47
2017-12-02T21:37:47.902Z,39.78
2017-12-02T21:40:16.138Z,31.70
2017-12-02T21:42:43.614Z,32.10
2017-12-02T21:45:11.145Z,35.38
2017-12-02T21:47:38.589Z,35.17
2017-12-02T21:50:06.029Z,32.58
2017-12-02T21:52:33.650Z,33.40
2017-12-02T21:58:03.690Z,34.97
2017-12-02T22:00:31.134Z,37.22
2017-12-02T22:02:58.715Z,34.45
2017-12-02T22:05:26.154Z,36.17
2017-12-02T22:07:53.585Z,36.42
2017-12-02T22:10:21.178Z,35.35
2017-12-02T22:12:48.755Z,38.55
2017-12-02T22:15:16.199Z,36.92
2017-12-02T22:17:43.649Z,33.25
2017-12-02T22:20:11.113Z,34.22
2017-12-02T22:22:38.578Z,38.22
2017-12-02T22:25:06.038Z,36.80
2017-12-02T22:27:33.473Z,38.30
2017-12-02T22:30:01.109Z,37.00
2017-12-02T22:32:28.541Z,34.45
2017-12-02T22:34:56.010Z,37.20
2017-12-02T22:37:27.546Z,35.75
2017-12-02T22:39:55.761Z,36.53
2017-12-02T22:42:23.258Z,40.33
2017-12-02T22:44:50.703Z,37.90
2017-12-02T22:47:19.088Z,38.42
2017-12-02T22:49:46.701Z,40.78
2017-12-02T22:52:14.137Z,39.72
2017-12-02T22:54:42.342Z,35.33
2017-12-02T22:57:09.805Z,38.60
2017-12-02T22:59:37.250Z,40.42
2017-12-02T23:02:04.735Z,42.30
2017-12-02T23:04:32.176Z,39.65
2017-12-02T23:06:59.617Z,37.22
2017-12-02T23:09:28.645Z,38.78
2017-12-02T23:11:56.303Z,41.33
2017-12-02T23:14:23.870Z,38.28
2017-12-02T23:16:51.314Z,37.40
2017-12-02T23:19:19.186Z,37.95
2017-12-02T23:21:55.641Z,38.30
2017-12-02T23:24:23.101Z,39.55
2017-12-02T23:26:50.771Z,43.35
2017-12-02T23:29:18.215Z,36.85
2017-12-02T23:31:45.645Z,42.90
2017-12-02T23:34:13.872Z,44.30
2017-12-02T23:36:41.337Z,41.25
2017-12-02T23:39:09.722Z,44.17
2017-12-02T23:41:37.213Z,42.97
2017-12-02T23:44:05.418Z,42.80
2017-12-02T23:46:32.867Z,45.00
2017-12-02T23:49:00.469Z,39.95
2017-12-02T23:51:27.913Z,46.00
2017-12-02T23:53:55.349Z,45.03
2017-12-02T23:56:23.804Z,44.42
2017-12-02T23:58:52.008Z,47.47
